Nearby METAR Reports

 

KMNN - Marion, Ohio, USA
Distance from station: ENE 4mi, 6km
Updated: 11/26/2022 6:53pm
Clear
Clear
 Wind from S
Wind: S 7 mph , 11 km/h
Temperature: 45°F , 7°C
Wind Chill: 41°F , 5°C
Dew Point: 30°F , -1°C
Humidity: 57%
Barometer: 29.97 inHg , 1014.9 hPa
Clouds: Clear
Visibility: 7 miles , 11 km
2022/11/26 23:53 KMNN 262353Z AUTO 17006KT 7SM CLR 07/M01 A2997 RMK AO2 SLP159 T00671011 10122 20061 58015
KDLZ - Delaware, Ohio, USA
Distance from station: S 21mi, 34km
Updated: 11/26/2022 7:35pm
Partly cloudy
Partly cloudy
 Wind from S
Wind: S 7 mph , 11 km/h
Temperature: 41°F , 5°C
Wind Chill: 36°F , 2°C
Dew Point: 30°F , -1°C
Humidity: 66%
Barometer: 29.98 inHg , 1015.2 hPa
Clouds: Partly cloudy
Visibility: 10 miles , 16 km
Cloud details: Partly cloudy 11000 ft
2022/11/27 00:35 KDLZ 270035Z AUTO 18006KT 10SM SCT110 05/M01 A2998 RMK AO2
 
KMRT - Marysville, Ohio, USA
Distance from station: SSW 28mi, 45km
Updated: 11/26/2022 7:35pm
Clear
Clear
 Wind from SSW
Wind: SSW 8 mph , 13 km/h
Temperature: 45°F , 7°C
Wind Chill: 41°F , 5°C
Dew Point: 32°F , 0°C
Humidity: 61%
Barometer: 29.99 inHg , 1015.6 hPa
Clouds: Clear
Visibility: 10 miles , 16 km
2022/11/27 00:35 KMRT 270035Z AUTO 20007KT 10SM CLR 07/00 A2999 RMK AO2 T00741005
KOSU - Columbus/St Univ, Ohio, USA
Distance from station: S 35mi, 56km
Updated: 11/26/2022 6:53pm
Clear
Clear
 Wind from SSE
Wind: SSE 6 mph , 9 km/h
Temperature: 48°F , 9°C
Wind Chill: 45°F , 7°C
Dew Point: 30°F , -1°C
Humidity: 50%
Barometer: 29.99 inHg , 1015.6 hPa
Clouds: Clear
Visibility: 10 miles , 16 km
2022/11/26 23:53 KOSU 262353Z 16005KT 10SM CLR 09/M01 A2999 RMK AO2 SLP163 T00941011 10133 20094 56012
 
KMFD - Mansfield, Ohio, USA
Distance from station: ENE 36mi, 57km
Updated: 11/26/2022 6:52pm
Clear
Clear
 Wind from S
Wind: S 8 mph , 13 km/h
Temperature: 45°F , 7°C
Wind Chill: 41°F , 5°C
Dew Point: 28°F , -2°C
Humidity: 53%
Barometer: 29.98 inHg , 1015.2 hPa
Clouds: Clear
Visibility: 10 miles , 16 km
2022/11/26 23:52 KMFD 262352Z 17007KT 10SM CLR 07/M02 A2998 RMK AO2 SLP161 T00671022 10128 20067 58013
K4I3 - Mt Vernon/Knox, Ohio, USA
Distance from station: ESE 36mi, 58km
Updated: 11/26/2022 7:35pm
Clear
Clear
 Wind from SSE
Wind: SSE 5 mph , 7 km/h
Temperature: 43°F , 6°C
Wind Chill: 40°F , 4°C
Dew Point: 28°F , -2°C
Humidity: 57%
Barometer: 29.99 inHg , 1015.6 hPa
Clouds: Clear
Visibility: 10 miles , 16 km
2022/11/27 00:35 K4I3 270035Z AUTO 16004KT 10SM CLR 06/M02 A2999 RMK AO2
 
KEDJ - Bellefontaine, Ohio, USA
Distance from station: WSW 39mi, 63km
Updated: 11/26/2022 7:35pm

 Wind from S
Wind: S 9 mph , 15 km/h
Temperature: 46°F , 8°C
Wind Chill: 41°F , 5°C
Dew Point: 30°F , -1°C
Humidity: 53%
Barometer: 29.97 inHg , 1014.9 hPa
Visibility: 10 miles , 16 km
2022/11/27 00:35 KEDJ 270035Z AUTO 17008KT 10SM 08/M01 A2997 RMK A01
KFDY - Findlay, Ohio, USA
Distance from station: NW 41mi, 66km
Updated: 11/26/2022 6:53pm
Clear
Clear
 Wind from SSE
Wind: SSE 5 mph , 7 km/h
Temperature: 45°F , 7°C
Wind Chill: 42°F , 6°C
Dew Point: 28°F , -2°C
Humidity: 53%
Barometer: 29.94 inHg , 1013.9 hPa
Clouds: Clear
Visibility: 10 miles , 16 km
2022/11/26 23:53 KFDY 262353Z AUTO 16004KT 10SM CLR 07/M02 A2994 RMK AO2 SLP142 T00721022 10139 20056 58015
 
KCMH - Columbus, Ohio, USA
Distance from station: SSE 43mi, 69km
Updated: 11/26/2022 7:51pm
Overcast
Overcast
 Wind from SE
Wind: SE 5 mph , 7 km/h
Temperature: 46°F , 8°C
Wind Chill: 44°F , 7°C
Dew Point: 30°F , -1°C
Humidity: 53%
Barometer: 29.99 inHg , 1015.6 hPa
Clouds: Overcast
Visibility: 10 miles , 16 km
Cloud details: Overcast 20000 ft
2022/11/27 00:51 KCMH 270051Z 13004KT 10SM OVC200 08/M01 A2999 RMK AO2 SLP159 T00831011 $
KAOH - Lima, Ohio, USA
Distance from station: W 47mi, 76km
Updated: 11/26/2022 6:53pm
Clear
Clear
 Wind from S
Wind: S 7 mph , 11 km/h
Temperature: 45°F , 7°C
Wind Chill: 41°F , 5°C
Dew Point: 28°F , -2°C
Humidity: 53%
Barometer: 29.96 inHg , 1014.6 hPa
Clouds: Clear
Visibility: 10 miles , 16 km
2022/11/26 23:53 KAOH 262353Z AUTO 18006KT 10SM CLR 07/M02 A2996 RMK AO2 SLP152 T00721022 10133 20061 58012 $
 
KTZR - Columbus/Bolton, Ohio, USA
Distance from station: S 48mi, 77km
Updated: 11/26/2022 7:30pm
Clear
Clear
 Wind from S
Wind: S 3 mph , 6 km/h
Temperature: 46°F , 8°C
Dew Point: 32°F , 0°C
Humidity: 57%
Barometer: 30.00 inHg , 1015.9 hPa
Clouds: Clear
Visibility: 10 miles , 16 km
2022/11/27 00:30 KTZR 270030Z AUTO 17003KT 10SM CLR 08/00 A3000 RMK AO2 T00771005
KUYF - London, Ohio, USA
Distance from station: SSW 49mi, 78km
Updated: 11/26/2022 7:35pm
Clear
Clear
 Wind from S
Wind: S 5 mph , 7 km/h
Temperature: 41°F , 5°C
Wind Chill: 38°F , 3°C
Dew Point: 30°F , -1°C
Humidity: 66%
Barometer: 29.98 inHg , 1015.2 hPa
Clouds: Clear
Visibility: 10 miles , 16 km
2022/11/27 00:35 KUYF 270035Z AUTO 18004KT 10SM CLR 05/M01 A2998 RMK AO2